sensor_id;sensor_type;location;lat;lon;timestamp;temperature;humidity
11656;DHT22;5884;43.618;1.438;2022-08-01T04:46:40;21.40;99.90
11656;DHT22;5884;43.618;1.438;2022-08-01T04:49:07;21.40;99.90
11656;DHT22;5884;43.618;1.438;2022-08-01T04:51:35;21.40;99.90
11656;DHT22;5884;43.618;1.438;2022-08-01T04:54:02;21.40;99.90
11656;DHT22;5884;43.618;1.438;2022-08-01T04:56:30;21.40;99.90
11656;DHT22;5884;43.618;1.438;2022-08-01T04:58:59;21.40;99.90
11656;DHT22;5884;43.618;1.438;2022-08-01T05:01:49;21.40;99.90
11656;DHT22;5884;43.618;1.438;2022-08-01T05:04:17;21.40;99.90
11656;DHT22;5884;43.618;1.438;2022-08-01T05:06:44;21.40;99.90
11656;DHT22;5884;43.618;1.438;2022-08-01T05:09:11;21.30;99.90
11656;DHT22;5884;43.618;1.438;2022-08-01T05:11:38;21.30;99.90
11656;DHT22;5884;43.618;1.438;2022-08-01T05:14:06;21.30;99.90
11656;DHT22;5884;43.618;1.438;2022-08-01T05:16:33;21.30;99.90
11656;DHT22;5884;43.618;1.438;2022-08-01T05:19:01;21.30;99.90
11656;DHT22;5884;43.618;1.438;2022-08-01T05:21:29;21.30;99.90
11656;DHT22;5884;43.618;1.438;2022-08-01T05:23:56;21.30;99.90
11656;DHT22;5884;43.618;1.438;2022-08-01T05:26:24;21.30;99.90
11656;DHT22;5884;43.618;1.438;2022-08-01T05:28:51;21.30;99.90
11656;DHT22;5884;43.618;1.438;2022-08-01T05:31:18;21.20;99.90
11656;DHT22;5884;43.618;1.438;2022-08-01T05:33:45;21.30;99.90
11656;DHT22;5884;43.618;1.438;2022-08-01T05:36:14;21.20;99.90
11656;DHT22;5884;43.618;1.438;2022-08-01T05:38:41;21.30;99.90
11656;DHT22;5884;43.618;1.438;2022-08-01T05:41:08;21.30;99.90
11656;DHT22;5884;43.618;1.438;2022-08-01T05:43:36;21.30;99.90
11656;DHT22;5884;43.618;1.438;2022-08-01T05:46:04;21.30;99.90
11656;DHT22;5884;43.618;1.438;2022-08-01T05:48:31;21.30;99.90
11656;DHT22;5884;43.618;1.438;2022-08-01T05:50:58;21.30;99.90
11656;DHT22;5884;43.618;1.438;2022-08-01T05:53:27;21.40;99.90
11656;DHT22;5884;43.618;1.438;2022-08-01T05:55:54;21.40;99.90
11656;DHT22;5884;43.618;1.438;2022-08-01T05:58:22;21.40;99.90
11656;DHT22;5884;43.618;1.438;2022-08-01T06:00:49;21.40;99.90
11656;DHT22;5884;43.618;1.438;2022-08-01T06:03:17;21.50;99.90
11656;DHT22;5884;43.618;1.438;2022-08-01T06:05:44;21.50;99.90
11656;DHT22;5884;43.618;1.438;2022-08-01T06:08:11;21.50;99.90
11656;DHT22;5884;43.618;1.438;2022-08-01T06:10:40;21.50;99.90
11656;DHT22;5884;43.618;1.438;2022-08-01T06:13:08;21.50;99.90
11656;DHT22;5884;43.618;1.438;2022-08-01T06:15:35;21.60;99.90
11656;DHT22;5884;43.618;1.438;2022-08-01T06:18:02;21.70;99.90
11656;DHT22;5884;43.618;1.438;2022-08-01T06:20:30;21.80;99.90
11656;DHT22;5884;43.618;1.438;2022-08-01T06:22:57;21.80;99.90
11656;DHT22;5884;43.618;1.438;2022-08-01T06:25:25;21.90;99.90
11656;DHT22;5884;43.618;1.438;2022-08-01T06:27:54;21.90;99.90
11656;DHT22;5884;43.618;1.438;2022-08-01T06:30:21;21.90;99.90
11656;DHT22;5884;43.618;1.438;2022-08-01T06:32:48;21.90;99.90
11656;DHT22;5884;43.618;1.438;2022-08-01T06:35:16;21.90;99.90
11656;DHT22;5884;43.618;1.438;2022-08-01T06:37:43;21.90;99.90
11656;DHT22;5884;43.618;1.438;2022-08-01T06:40:12;22.00;99.90
11656;DHT22;5884;43.618;1.438;2022-08-01T06:42:40;22.10;99.90
11656;DHT22;5884;43.618;1.438;2022-08-01T06:45:10;22.20;99.90
11656;DHT22;5884;43.618;1.438;2022-08-01T06:47:39;22.30;99.90
11656;DHT22;5884;43.618;1.438;2022-08-01T06:50:08;22.40;99.90
11656;DHT22;5884;43.618;1.438;2022-08-01T06:52:36;22.50;99.90
11656;DHT22;5884;43.618;1.438;2022-08-01T06:55:04;22.40;99.90
11656;DHT22;5884;43.618;1.438;2022-08-01T06:57:32;22.50;99.90
11656;DHT22;5884;43.618;1.438;2022-08-01T07:00:02;22.60;99.90
11656;DHT22;5884;43.618;1.438;2022-08-01T07:02:32;22.70;99.90
11656;DHT22;5884;43.618;1.438;2022-08-01T07:05:00;22.60;99.90
11656;DHT22;5884;43.618;1.438;2022-08-01T07:07:27;22.60;99.90
11656;DHT22;5884;43.618;1.438;2022-08-01T07:09:54;22.70;99.90
11656;DHT22;5884;43.618;1.438;2022-08-01T07:12:21;22.90;99.90
11656;DHT22;5884;43.618;1.438;2022-08-01T07:14:48;22.90;99.90
11656;DHT22;5884;43.618;1.438;2022-08-01T07:17:16;22.90;99.90
11656;DHT22;5884;43.618;1.438;2022-08-01T07:19:47;23.10;99.90
11656;DHT22;5884;43.618;1.438;2022-08-01T07:22:14;22.90;99.90
11656;DHT22;5884;43.618;1.438;2022-08-01T07:24:42;23.10;99.90
11656;DHT22;5884;43.618;1.438;2022-08-01T07:27:09;23.10;99.90
11656;DHT22;5884;43.618;1.438;2022-08-01T07:29:36;23.20;99.90
11656;DHT22;5884;43.618;1.438;2022-08-01T07:32:04;23.20;99.90
11656;DHT22;5884;43.618;1.438;2022-08-01T07:34:32;23.20;99.90
11656;DHT22;5884;43.618;1.438;2022-08-01T07:37:01;23.30;99.90
11656;DHT22;5884;43.618;1.438;2022-08-01T07:39:28;23.40;99.90
11656;DHT22;5884;43.618;1.438;2022-08-01T07:41:55;23.50;99.90
11656;DHT22;5884;43.618;1.438;2022-08-01T07:44:23;23.60;99.90
11656;DHT22;5884;43.618;1.438;2022-08-01T07:46:50;23.70;99.90
11656;DHT22;5884;43.618;1.438;2022-08-01T07:49:17;23.70;99.90
11656;DHT22;5884;43.618;1.438;2022-08-01T07:51:45;23.80;99.90
11656;DHT22;5884;43.618;1.438;2022-08-01T07:54:13;23.90;99.90
11656;DHT22;5884;43.618;1.438;2022-08-01T07:56:40;24.00;99.90
11656;DHT22;5884;43.618;1.438;2022-08-01T07:59:08;24.00;99.90
11656;DHT22;5884;43.618;1.438;2022-08-01T08:01:35;24.10;99.90
11656;DHT22;5884;43.618;1.438;2022-08-01T08:04:02;24.10;99.90
11656;DHT22;5884;43.618;1.438;2022-08-01T08:06:29;24.20;99.90
11656;DHT22;5884;43.618;1.438;2022-08-01T08:08:56;24.30;99.90
11656;DHT22;5884;43.618;1.438;2022-08-01T08:11:25;24.40;99.90
11656;DHT22;5884;43.618;1.438;2022-08-01T08:13:52;24.30;99.90
11656;DHT22;5884;43.618;1.438;2022-08-01T08:16:20;24.40;99.90
11656;DHT22;5884;43.618;1.438;2022-08-01T08:18:47;24.50;99.90
11656;DHT22;5884;43.618;1.438;2022-08-01T08:21:14;24.60;99.90
11656;DHT22;5884;43.618;1.438;2022-08-01T08:23:42;24.60;99.90
11656;DHT22;5884;43.618;1.438;2022-08-01T08:26:30;24.60;99.90
11656;DHT22;5884;43.618;1.438;2022-08-01T08:28:57;24.70;99.90
11656;DHT22;5884;43.618;1.438;2022-08-01T08:31:24;24.80;99.90
11656;DHT22;5884;43.618;1.438;2022-08-01T08:33:51;24.90;99.90
11656;DHT22;5884;43.618;1.438;2022-08-01T08:36:19;24.90;99.90
11656;DHT22;5884;43.618;1.438;2022-08-01T08:38:46;25.00;99.90
11656;DHT22;5884;43.618;1.438;2022-08-01T08:41:14;25.20;99.90
11656;DHT22;5884;43.618;1.438;2022-08-01T08:43:43;25.20;99.90
11656;DHT22;5884;43.618;1.438;2022-08-01T08:46:11;25.30;99.90
11656;DHT22;5884;43.618;1.438;2022-08-01T08:48:40;25.30;99.90
11656;DHT22;5884;43.618;1.438;2022-08-01T08:51:08;25.30;99.90
11656;DHT22;5884;43.618;1.438;2022-08-01T08:53:37;25.40;99.90
11656;DHT22;5884;43.618;1.438;2022-08-01T08:56:06;25.60;99.90
11656;DHT22;5884;43.618;1.438;2022-08-01T08:58:35;25.70;99.90
11656;DHT22;5884;43.618;1.438;2022-08-01T09:01:07;25.80;99.90
11656;DHT22;5884;43.618;1.438;2022-08-01T09:03:34;26.00;99.90
11656;DHT22;5884;43.618;1.438;2022-08-01T09:06:01;26.20;99.90
11656;DHT22;5884;43.618;1.438;2022-08-01T09:08:29;26.20;99.90
11656;DHT22;5884;43.618;1.438;2022-08-01T09:10:56;26.10;99.90
11656;DHT22;5884;43.618;1.438;2022-08-01T09:13:23;26.00;99.90
11656;DHT22;5884;43.618;1.438;2022-08-01T09:15:52;26.00;99.90
11656;DHT22;5884;43.618;1.438;2022-08-01T09:18:30;26.10;99.90
11656;DHT22;5884;43.618;1.438;2022-08-01T09:21:21;26.30;99.90
11656;DHT22;5884;43.618;1.438;2022-08-01T09:23:52;26.50;99.90
11656;DHT22;5884;43.618;1.438;2022-08-01T09:26:29;26.40;99.90
11656;DHT22;5884;43.618;1.438;2022-08-01T09:28:58;26.40;99.90
11656;DHT22;5884;43.618;1.438;2022-08-01T09:31:27;26.40;99.90
11656;DHT22;5884;43.618;1.438;2022-08-01T09:33:58;26.70;99.90
11656;DHT22;5884;43.618;1.438;2022-08-01T09:36:44;27.10;99.90
11656;DHT22;5884;43.618;1.438;2022-08-01T09:39:17;27.20;99.90
11656;DHT22;5884;43.618;1.438;2022-08-01T09:41:47;27.40;99.90
11656;DHT22;5884;43.618;1.438;2022-08-01T09:44:16;27.40;99.90
11656;DHT22;5884;43.618;1.438;2022-08-01T09:46:54;27.60;99.90
11656;DHT22;5884;43.618;1.438;2022-08-01T09:49:31;27.50;99.90
11656;DHT22;5884;43.618;1.438;2022-08-01T09:52:09;27.40;99.90
11656;DHT22;5884;43.618;1.438;2022-08-01T09:54:38;27.70;99.90
11656;DHT22;5884;43.618;1.438;2022-08-01T09:57:14;27.70;99.90
11656;DHT22;5884;43.618;1.438;2022-08-01T09:59:46;27.80;99.90
11656;DHT22;5884;43.618;1.438;2022-08-01T10:02:26;27.80;99.90
11656;DHT22;5884;43.618;1.438;2022-08-01T10:04:57;27.80;99.90
11656;DHT22;5884;43.618;1.438;2022-08-01T10:07:24;27.90;99.90
11656;DHT22;5884;43.618;1.438;2022-08-01T10:09:54;28.00;99.90
11656;DHT22;5884;43.618;1.438;2022-08-01T10:12:22;28.30;99.90
11656;DHT22;5884;43.618;1.438;2022-08-01T10:14:51;28.30;99.90
11656;DHT22;5884;43.618;1.438;2022-08-01T10:17:21;28.40;99.90
11656;DHT22;5884;43.618;1.438;2022-08-01T10:19:51;28.40;99.90
11656;DHT22;5884;43.618;1.438;2022-08-01T10:22:23;28.30;99.90
11656;DHT22;5884;43.618;1.438;2022-08-01T10:24:55;28.30;99.90
11656;DHT22;5884;43.618;1.438;2022-08-01T10:27:25;28.20;99.90
11656;DHT22;5884;43.618;1.438;2022-08-01T10:29:56;28.30;99.90
11656;DHT22;5884;43.618;1.438;2022-08-01T10:32:29;28.60;99.90
11656;DHT22;5884;43.618;1.438;2022-08-01T10:34:56;28.80;99.90
11656;DHT22;5884;43.618;1.438;2022-08-01T10:37:25;28.80;99.90
11656;DHT22;5884;43.618;1.438;2022-08-01T10:39:53;29.00;99.90
11656;DHT22;5884;43.618;1.438;2022-08-01T10:42:21;29.20;99.90
11656;DHT22;5884;43.618;1.438;2022-08-01T10:44:48;29.20;99.90
11656;DHT22;5884;43.618;1.438;2022-08-01T10:47:21;29.30;99.90
11656;DHT22;5884;43.618;1.438;2022-08-01T10:49:56;29.30;99.90
11656;DHT22;5884;43.618;1.438;2022-08-01T10:52:31;29.10;99.90
11656;DHT22;5884;43.618;1.438;2022-08-01T10:55:02;28.90;99.90
11656;DHT22;5884;43.618;1.438;2022-08-01T10:57:42;29.00;99.90
11656;DHT22;5884;43.618;1.438;2022-08-01T11:00:16;29.10;99.90
11656;DHT22;5884;43.618;1.438;2022-08-01T11:02:57;29.00;99.90
11656;DHT22;5884;43.618;1.438;2022-08-01T11:05:27;29.10;99.90
11656;DHT22;5884;43.618;1.438;2022-08-01T11:07:58;29.10;99.90
11656;DHT22;5884;43.618;1.438;2022-08-01T11:10:33;29.20;99.90
11656;DHT22;5884;43.618;1.438;2022-08-01T11:13:04;29.20;99.90
11656;DHT22;5884;43.618;1.438;2022-08-01T11:15:34;29.30;99.90
11656;DHT22;5884;43.618;1.438;2022-08-01T11:18:03;29.50;99.90
11656;DHT22;5884;43.618;1.438;2022-08-01T11:20:32;29.60;99.90
11656;DHT22;5884;43.618;1.438;2022-08-01T11:23:26;29.60;99.90
11656;DHT22;5884;43.618;1.438;2022-08-01T11:26:14;29.70;99.90
11656;DHT22;5884;43.618;1.438;2022-08-01T11:28:43;29.90;99.90
11656;DHT22;5884;43.618;1.438;2022-08-01T11:31:29;29.80;99.90
11656;DHT22;5884;43.618;1.438;2022-08-01T11:33:57;29.80;99.90
11656;DHT22;5884;43.618;1.438;2022-08-01T11:36:26;30.10;99.90
11656;DHT22;5884;43.618;1.438;2022-08-01T11:39:17;30.10;99.90
11656;DHT22;5884;43.618;1.438;2022-08-01T11:41:46;30.40;99.90
11656;DHT22;5884;43.618;1.438;2022-08-01T11:44:17;30.80;99.90
11656;DHT22;5884;43.618;1.438;2022-08-01T11:46:50;30.60;99.90
11656;DHT22;5884;43.618;1.438;2022-08-01T11:49:28;30.70;99.90
11656;DHT22;5884;43.618;1.438;2022-08-01T11:52:03;30.70;99.90
11656;DHT22;5884;43.618;1.438;2022-08-01T11:54:35;30.70;99.90
11656;DHT22;5884;43.618;1.438;2022-08-01T11:57:05;30.60;99.90
11656;DHT22;5884;43.618;1.438;2022-08-01T11:59:38;30.50;99.90
11656;DHT22;5884;43.618;1.438;2022-08-01T12:02:16;30.60;99.90
11656;DHT22;5884;43.618;1.438;2022-08-01T12:04:49;30.90;99.90
11656;DHT22;5884;43.618;1.438;2022-08-01T12:07:18;31.00;99.90
11656;DHT22;5884;43.618;1.438;2022-08-01T12:09:48;30.80;99.90
11656;DHT22;5884;43.618;1.438;2022-08-01T12:12:16;30.80;99.90
11656;DHT22;5884;43.618;1.438;2022-08-01T12:14:45;30.70;99.90
11656;DHT22;5884;43.618;1.438;2022-08-01T12:17:27;30.90;99.90
11656;DHT22;5884;43.618;1.438;2022-08-01T12:19:58;30.90;99.90
11656;DHT22;5884;43.618;1.438;2022-08-01T12:22:25;31.20;99.90
11656;DHT22;5884;43.618;1.438;2022-08-01T12:24:54;31.20;99.90
11656;DHT22;5884;43.618;1.438;2022-08-01T12:27:27;31.30;99.90
11656;DHT22;5884;43.618;1.438;2022-08-01T12:29:56;31.30;99.90
11656;DHT22;5884;43.618;1.438;2022-08-01T12:32:27;31.10;99.90
11656;DHT22;5884;43.618;1.438;2022-08-01T12:35:00;31.30;99.90
11656;DHT22;5884;43.618;1.438;2022-08-01T12:37:29;31.40;99.90
11656;DHT22;5884;43.618;1.438;2022-08-01T12:39:59;31.20;99.90
11656;DHT22;5884;43.618;1.438;2022-08-01T12:42:27;31.30;99.90
11656;DHT22;5884;43.618;1.438;2022-08-01T12:44:55;31.40;99.90
11656;DHT22;5884;43.618;1.438;2022-08-01T12:47:23;31.60;99.90
11656;DHT22;5884;43.618;1.438;2022-08-01T12:49:51;31.60;99.90
11656;DHT22;5884;43.618;1.438;2022-08-01T12:52:18;31.60;99.90
11656;DHT22;5884;43.618;1.438;2022-08-01T12:55:05;31.80;99.90
11656;DHT22;5884;43.618;1.438;2022-08-01T12:57:36;31.70;99.90
11656;DHT22;5884;43.618;1.438;2022-08-01T13:00:13;31.60;99.90
11656;DHT22;5884;43.618;1.438;2022-08-01T13:02:43;31.80;99.90
11656;DHT22;5884;43.618;1.438;2022-08-01T13:05:11;32.00;99.90
11656;DHT22;5884;43.618;1.438;2022-08-01T13:07:42;32.20;99.90
11656;DHT22;5884;43.618;1.438;2022-08-01T13:10:13;31.90;99.90
11656;DHT22;5884;43.618;1.438;2022-08-01T13:12:51;31.90;99.90
11656;DHT22;5884;43.618;1.438;2022-08-01T13:15:22;31.90;99.90
11656;DHT22;5884;43.618;1.438;2022-08-01T13:17:53;31.80;99.90
11656;DHT22;5884;43.618;1.438;2022-08-01T13:20:32;31.80;99.90
11656;DHT22;5884;43.618;1.438;2022-08-01T13:23:11;32.00;99.90
11656;DHT22;5884;43.618;1.438;2022-08-01T13:25:52;32.10;99.90
11656;DHT22;5884;43.618;1.438;2022-08-01T13:28:22;32.00;99.90
11656;DHT22;5884;43.618;1.438;2022-08-01T13:30:57;31.70;99.90
11656;DHT22;5884;43.618;1.438;2022-08-01T13:33:27;31.80;99.90
11656;DHT22;5884;43.618;1.438;2022-08-01T13:36:06;32.10;99.90
11656;DHT22;5884;43.618;1.438;2022-08-01T13:38:33;32.20;99.90
11656;DHT22;5884;43.618;1.438;2022-08-01T13:41:19;32.10;99.90
11656;DHT22;5884;43.618;1.438;2022-08-01T13:43:46;32.10;99.90
11656;DHT22;5884;43.618;1.438;2022-08-01T13:46:14;32.20;99.90
11656;DHT22;5884;43.618;1.438;2022-08-01T13:48:41;32.40;99.90
11656;DHT22;5884;43.618;1.438;2022-08-01T13:51:08;32.30;99.90
11656;DHT22;5884;43.618;1.438;2022-08-01T13:53:35;32.20;99.90
11656;DHT22;5884;43.618;1.438;2022-08-01T13:56:03;32.10;99.90
11656;DHT22;5884;43.618;1.438;2022-08-01T13:58:32;32.40;99.90
11656;DHT22;5884;43.618;1.438;2022-08-01T14:00:59;32.30;99.90
11656;DHT22;5884;43.618;1.438;2022-08-01T14:03:26;32.50;99.90
11656;DHT22;5884;43.618;1.438;2022-08-01T14:05:53;32.60;99.90
11656;DHT22;5884;43.618;1.438;2022-08-01T14:08:21;32.90;99.90
11656;DHT22;5884;43.618;1.438;2022-08-01T14:10:48;33.10;99.90
11656;DHT22;5884;43.618;1.438;2022-08-01T14:13:15;33.00;99.90
11656;DHT22;5884;43.618;1.438;2022-08-01T14:15:43;32.70;99.90
11656;DHT22;5884;43.618;1.438;2022-08-01T14:18:11;32.80;99.90
11656;DHT22;5884;43.618;1.438;2022-08-01T14:20:39;32.60;99.10
11656;DHT22;5884;43.618;1.438;2022-08-01T14:23:06;32.60;99.90
11656;DHT22;5884;43.618;1.438;2022-08-01T14:25:33;32.60;99.90
11656;DHT22;5884;43.618;1.438;2022-08-01T14:28:00;32.60;99.90
11656;DHT22;5884;43.618;1.438;2022-08-01T14:30:27;32.80;99.30
11656;DHT22;5884;43.618;1.438;2022-08-01T14:32:56;32.80;98.40
11656;DHT22;5884;43.618;1.438;2022-08-01T14:35:24;32.90;97.60
11656;DHT22;5884;43.618;1.438;2022-08-01T14:37:51;32.80;98.20
11656;DHT22;5884;43.618;1.438;2022-08-01T14:40:19;32.90;97.80
11656;DHT22;5884;43.618;1.438;2022-08-01T14:42:46;33.00;95.40
11656;DHT22;5884;43.618;1.438;2022-08-01T14:45:14;32.70;95.20
11656;DHT22;5884;43.618;1.438;2022-08-01T14:47:42;32.80;94.70
11656;DHT22;5884;43.618;1.438;2022-08-01T14:50:13;33.10;94.80
11656;DHT22;5884;43.618;1.438;2022-08-01T14:52:42;33.20;93.50
11656;DHT22;5884;43.618;1.438;2022-08-01T14:55:11;33.30;92.70
11656;DHT22;5884;43.618;1.438;2022-08-01T14:57:39;33.40;91.80
11656;DHT22;5884;43.618;1.438;2022-08-01T15:00:08;33.20;92.20
11656;DHT22;5884;43.618;1.438;2022-08-01T15:02:37;33.20;91.00
11656;DHT22;5884;43.618;1.438;2022-08-01T15:05:05;33.10;90.70
11656;DHT22;5884;43.618;1.438;2022-08-01T15:07:35;33.10;90.10
11656;DHT22;5884;43.618;1.438;2022-08-01T15:10:03;33.20;87.20
11656;DHT22;5884;43.618;1.438;2022-08-01T15:12:31;33.10;86.30
11656;DHT22;5884;43.618;1.438;2022-08-01T15:14:59;33.10;88.00
11656;DHT22;5884;43.618;1.438;2022-08-01T15:17:27;33.10;88.20
11656;DHT22;5884;43.618;1.438;2022-08-01T15:19:58;33.10;86.90
11656;DHT22;5884;43.618;1.438;2022-08-01T15:22:27;33.20;84.20
11656;DHT22;5884;43.618;1.438;2022-08-01T15:24:58;33.20;84.00
11656;DHT22;5884;43.618;1.438;2022-08-01T15:27:26;33.10;82.20
11656;DHT22;5884;43.618;1.438;2022-08-01T15:29:55;33.10;80.40
11656;DHT22;5884;43.618;1.438;2022-08-01T15:32:23;33.10;80.40
11656;DHT22;5884;43.618;1.438;2022-08-01T15:34:50;33.20;81.80
11656;DHT22;5884;43.618;1.438;2022-08-01T15:37:18;33.20;82.80
11656;DHT22;5884;43.618;1.438;2022-08-01T15:39:45;33.20;82.40
11656;DHT22;5884;43.618;1.438;2022-08-01T15:42:17;33.30;80.60
11656;DHT22;5884;43.618;1.438;2022-08-01T15:44:44;33.20;79.90
11656;DHT22;5884;43.618;1.438;2022-08-01T15:47:12;33.00;80.00
11656;DHT22;5884;43.618;1.438;2022-08-01T15:49:40;33.30;80.70
11656;DHT22;5884;43.618;1.438;2022-08-01T15:52:08;33.30;79.20
11656;DHT22;5884;43.618;1.438;2022-08-01T15:54:36;33.30;80.50
11656;DHT22;5884;43.618;1.438;2022-08-01T15:57:06;33.30;79.30
11656;DHT22;5884;43.618;1.438;2022-08-01T15:59:35;33.30;77.70
11656;DHT22;5884;43.618;1.438;2022-08-01T16:02:02;33.30;76.50
11656;DHT22;5884;43.618;1.438;2022-08-01T16:04:30;33.20;77.60
11656;DHT22;5884;43.618;1.438;2022-08-01T16:06:57;33.10;77.30
11656;DHT22;5884;43.618;1.438;2022-08-01T16:09:24;33.20;77.40
11656;DHT22;5884;43.618;1.438;2022-08-01T16:11:52;33.10;75.80
11656;DHT22;5884;43.618;1.438;2022-08-01T16:14:19;33.00;76.00
11656;DHT22;5884;43.618;1.438;2022-08-01T16:16:48;33.20;78.60
11656;DHT22;5884;43.618;1.438;2022-08-01T16:19:15;33.20;78.90
11656;DHT22;5884;43.618;1.438;2022-08-01T16:21:43;33.20;78.10
11656;DHT22;5884;43.618;1.438;2022-08-01T16:24:10;33.10;73.90
11656;DHT22;5884;43.618;1.438;2022-08-01T16:26:37;33.00;73.10
11656;DHT22;5884;43.618;1.438;2022-08-01T16:29:05;33.00;72.80
11656;DHT22;5884;43.618;1.438;2022-08-01T16:31:32;33.20;71.80
11656;DHT22;5884;43.618;1.438;2022-08-01T16:34:01;33.20;72.00
11656;DHT22;5884;43.618;1.438;2022-08-01T16:36:28;33.20;70.80
11656;DHT22;5884;43.618;1.438;2022-08-01T16:38:55;33.10;69.70
11656;DHT22;5884;43.618;1.438;2022-08-01T16:41:22;33.00;69.50
11656;DHT22;5884;43.618;1.438;2022-08-01T16:43:50;33.10;70.00
11656;DHT22;5884;43.618;1.438;2022-08-01T16:46:17;33.20;68.60
11656;DHT22;5884;43.618;1.438;2022-08-01T16:48:44;33.00;69.20
11656;DHT22;5884;43.618;1.438;2022-08-01T16:51:13;33.00;70.90
11656;DHT22;5884;43.618;1.438;2022-08-01T16:53:40;32.80;72.00
11656;DHT22;5884;43.618;1.438;2022-08-01T16:56:07;32.80;73.00
11656;DHT22;5884;43.618;1.438;2022-08-01T16:58:34;32.80;70.80
11656;DHT22;5884;43.618;1.438;2022-08-01T17:01:01;32.70;68.00
11656;DHT22;5884;43.618;1.438;2022-08-01T17:03:29;32.70;67.30
11656;DHT22;5884;43.618;1.438;2022-08-01T17:05:56;32.70;69.90
11656;DHT22;5884;43.618;1.438;2022-08-01T17:08:24;32.70;69.70
11656;DHT22;5884;43.618;1.438;2022-08-01T17:10:52;32.70;68.90
11656;DHT22;5884;43.618;1.438;2022-08-01T17:13:19;32.70;68.70
11656;DHT22;5884;43.618;1.438;2022-08-01T17:15:48;32.50;67.50
11656;DHT22;5884;43.618;1.438;2022-08-01T17:18:15;32.60;65.30
11656;DHT22;5884;43.618;1.438;2022-08-01T17:20:43;32.50;64.20
11656;DHT22;5884;43.618;1.438;2022-08-01T17:23:12;32.60;65.10
11656;DHT22;5884;43.618;1.438;2022-08-01T17:25:40;32.50;65.80
11656;DHT22;5884;43.618;1.438;2022-08-01T17:28:08;32.50;64.70
11656;DHT22;5884;43.618;1.438;2022-08-01T17:30:35;32.60;64.80
11656;DHT22;5884;43.618;1.438;2022-08-01T17:33:04;32.50;64.10
11656;DHT22;5884;43.618;1.438;2022-08-01T17:35:32;32.60;65.40
11656;DHT22;5884;43.618;1.438;2022-08-01T17:37:59;32.60;66.40
11656;DHT22;5884;43.618;1.438;2022-08-01T17:40:26;32.60;66.80
11656;DHT22;5884;43.618;1.438;2022-08-01T17:42:55;32.50;66.30
11656;DHT22;5884;43.618;1.438;2022-08-01T17:45:22;32.50;66.50
11656;DHT22;5884;43.618;1.438;2022-08-01T17:47:50;32.50;69.90
11656;DHT22;5884;43.618;1.438;2022-08-01T17:50:17;32.40;72.30
11656;DHT22;5884;43.618;1.438;2022-08-01T17:52:44;32.40;73.50
11656;DHT22;5884;43.618;1.438;2022-08-01T17:55:11;32.30;74.30
11656;DHT22;5884;43.618;1.438;2022-08-01T17:57:39;32.30;74.90
11656;DHT22;5884;43.618;1.438;2022-08-01T18:00:12;32.30;76.10
11656;DHT22;5884;43.618;1.438;2022-08-01T18:02:40;32.30;77.60
11656;DHT22;5884;43.618;1.438;2022-08-01T18:05:08;32.20;74.90
11656;DHT22;5884;43.618;1.438;2022-08-01T18:07:35;32.10;74.70
11656;DHT22;5884;43.618;1.438;2022-08-01T18:10:03;32.10;74.00
11656;DHT22;5884;43.618;1.438;2022-08-01T18:12:31;32.10;74.30
11656;DHT22;5884;43.618;1.438;2022-08-01T18:14:59;32.00;73.60
11656;DHT22;5884;43.618;1.438;2022-08-01T18:17:30;31.90;73.20
11656;DHT22;5884;43.618;1.438;2022-08-01T18:19:57;31.80;72.90
11656;DHT22;5884;43.618;1.438;2022-08-01T18:22:24;31.80;72.20
11656;DHT22;5884;43.618;1.438;2022-08-01T18:24:52;31.70;70.90
11656;DHT22;5884;43.618;1.438;2022-08-01T18:27:19;31.70;70.40
11656;DHT22;5884;43.618;1.438;2022-08-01T18:29:46;31.60;71.40
11656;DHT22;5884;43.618;1.438;2022-08-01T18:32:13;31.60;70.70
11656;DHT22;5884;43.618;1.438;2022-08-01T18:34:42;31.50;70.40
11656;DHT22;5884;43.618;1.438;2022-08-01T18:37:09;31.50;71.10
11656;DHT22;5884;43.618;1.438;2022-08-01T18:39:37;31.50;72.00
11656;DHT22;5884;43.618;1.438;2022-08-01T18:42:05;31.40;72.80
11656;DHT22;5884;43.618;1.438;2022-08-01T18:44:32;31.30;74.20
11656;DHT22;5884;43.618;1.438;2022-08-01T18:47:01;31.10;73.90
11656;DHT22;5884;43.618;1.438;2022-08-01T18:49:28;31.10;74.70
11656;DHT22;5884;43.618;1.438;2022-08-01T18:51:57;31.00;75.30
11656;DHT22;5884;43.618;1.438;2022-08-01T18:54:24;30.90;75.80
11656;DHT22;5884;43.618;1.438;2022-08-01T18:56:52;30.80;76.90
11656;DHT22;5884;43.618;1.438;2022-08-01T18:59:19;30.70;77.40
11656;DHT22;5884;43.618;1.438;2022-08-01T19:01:47;30.60;77.80
11656;DHT22;5884;43.618;1.438;2022-08-01T19:04:14;30.60;77.20
11656;DHT22;5884;43.618;1.438;2022-08-01T19:06:41;30.50;77.70
11656;DHT22;5884;43.618;1.438;2022-08-01T19:09:10;30.40;78.50
11656;DHT22;5884;43.618;1.438;2022-08-01T19:11:38;30.40;78.10
11656;DHT22;5884;43.618;1.438;2022-08-01T19:14:05;30.30;79.20
11656;DHT22;5884;43.618;1.438;2022-08-01T19:16:32;30.30;79.00
11656;DHT22;5884;43.618;1.438;2022-08-01T19:19:03;30.20;79.80
11656;DHT22;5884;43.618;1.438;2022-08-01T19:21:31;30.10;80.60
11656;DHT22;5884;43.618;1.438;2022-08-01T19:23:58;30.00;80.70
11656;DHT22;5884;43.618;1.438;2022-08-01T19:26:48;30.00;81.00
11656;DHT22;5884;43.618;1.438;2022-08-01T19:29:19;30.00;81.50
11656;DHT22;5884;43.618;1.438;2022-08-01T19:31:48;29.90;81.90
11656;DHT22;5884;43.618;1.438;2022-08-01T19:34:18;29.90;81.90
11656;DHT22;5884;43.618;1.438;2022-08-01T19:36:48;29.80;82.80
11656;DHT22;5884;43.618;1.438;2022-08-01T19:39:19;29.70;83.80
11656;DHT22;5884;43.618;1.438;2022-08-01T19:41:50;29.60;84.30
11656;DHT22;5884;43.618;1.438;2022-08-01T19:44:19;29.60;83.90
11656;DHT22;5884;43.618;1.438;2022-08-01T19:46:49;29.60;84.90
11656;DHT22;5884;43.618;1.438;2022-08-01T19:49:18;29.50;86.20
11656;DHT22;5884;43.618;1.438;2022-08-01T19:51:48;29.30;86.10
11656;DHT22;5884;43.618;1.438;2022-08-01T19:54:18;29.20;87.40
11656;DHT22;5884;43.618;1.438;2022-08-01T19:56:48;29.30;87.80
11656;DHT22;5884;43.618;1.438;2022-08-01T19:59:18;29.30;87.60
11656;DHT22;5884;43.618;1.438;2022-08-01T20:01:47;29.30;87.10
11656;DHT22;5884;43.618;1.438;2022-08-01T20:04:16;29.20;88.00
11656;DHT22;5884;43.618;1.438;2022-08-01T20:06:44;29.10;88.90
11656;DHT22;5884;43.618;1.438;2022-08-01T20:09:13;29.10;90.00
11656;DHT22;5884;43.618;1.438;2022-08-01T20:11:44;29.00;90.10
11656;DHT22;5884;43.618;1.438;2022-08-01T20:14:16;29.00;90.50
11656;DHT22;5884;43.618;1.438;2022-08-01T20:16:46;28.90;90.50
11656;DHT22;5884;43.618;1.438;2022-08-01T20:19:13;28.90;90.80
11656;DHT22;5884;43.618;1.438;2022-08-01T20:21:45;28.80;91.00
11656;DHT22;5884;43.618;1.438;2022-08-01T20:24:16;28.80;91.00
11656;DHT22;5884;43.618;1.438;2022-08-01T20:26:44;28.80;92.30
11656;DHT22;5884;43.618;1.438;2022-08-01T20:29:16;28.60;91.70
11656;DHT22;5884;43.618;1.438;2022-08-01T20:31:48;28.50;91.80
11656;DHT22;5884;43.618;1.438;2022-08-01T20:34:18;28.50;92.10
11656;DHT22;5884;43.618;1.438;2022-08-01T20:36:47;28.40;92.50
11656;DHT22;5884;43.618;1.438;2022-08-01T20:39:16;28.40;92.70
11656;DHT22;5884;43.618;1.438;2022-08-01T20:41:44;28.40;93.20
11656;DHT22;5884;43.618;1.438;2022-08-01T20:44:15;28.30;93.50